autobusubilietai.lt alexa rank chart, autobusubilietai.lt alexa rank daily changes

autobusubilietai.lt alexa rank chart, autobusubilietai.lt alexa rank daily changes

autobusubilietai.lt
Actual rank:
133 362

RANK HISTORY

Date Rank Diff
2017/10/18 133 362 +351
2017/10/17 133 011 +336
2017/10/16 132 675 -1 240
2017/10/14 133 915 +305
2017/10/13 133 610 -276
2017/10/12 133 886 +1 321
2017/10/11 132 565 +2 583
2017/10/10 129 982 +129
2017/10/09 129 853 -403
2017/10/08 130 256 -2 206
2017/10/07 132 462 -731
2017/10/06 133 193 -243
2017/10/05 133 436 -166
2017/10/04 133 602 -894
2017/10/03 134 496 -413
2017/10/02 134 909 -1 017
2017/10/01 135 926 -4 064
2017/09/30 139 990 -528
2017/09/29 140 518 -889
2017/09/28 141 407 +349
2017/09/27 141 058 +2 981
2017/09/26 138 077 +749
2017/09/25 137 328 -777
2017/09/24 138 105 +1 708
2017/09/23 136 397 +2 895
2017/09/22 133 502 -303
2017/09/20 133 805 +2 492
2017/09/19 131 313 -2 445
2017/09/18 133 758 +1 355
2017/09/17 132 403 +1 191
2017/09/16 131 212 +3 008
2017/09/15 128 204 +1 943
2017/09/14 126 261 +1 087
2017/09/13 125 174 +943
2017/09/12 124 231 -303
2017/09/11 124 534 -1 677
2017/09/10 126 211 -1 335
2017/09/09 127 546 +2 249
2017/09/08 125 297 +1 306
2017/09/07 123 991 +2 814
2017/09/06 121 177 +1 113
2017/09/05 120 064 +229
2017/09/04 119 835 -172
2017/09/03 120 007 +545
2017/09/02 119 462 +1 046
2017/09/01 118 416 +1 722
2017/08/31 116 694 +2 292
2017/08/30 114 402 +2 560
2017/08/29 111 842 +628
2017/08/28 111 214 +783
2017/08/27 110 431 -1 521
2017/08/26 111 952 +23
2017/08/25 111 929 +883
2017/08/24 111 046 +1 693
2017/08/23 109 353 +3 109
2017/08/22 106 244 -449
2017/08/21 106 693 +820
2017/08/20 105 873 -1 126
2017/08/19 106 999

WIDGET FOR YOUR SITE

DOMAINS WITH THE NEAREST RANK

Domain Rank
ibuygou.com 133 357
iain-tulungagung.ac.id 133 358
minelli.fr 133 359
fine-drive.com 133 360
o-hr.cn 133 361
autobusubilietai.lt 133 362
fultoncountyga.gov 133 363
zspeeder.com 133 364
big.one 133 365
estdoc.jp 133 366
canaldapeca.com.br 133 367

DOMAINS WITH THE NEAREST RANK BY TLD .lt

Domain Rank
makalius.lt 125 083
tv24.lt 126 158
uzdarbis.lt 128 761
eavalyne.lt 129 092
cvmarket.lt 131 313
autobusubilietai.lt 133 362
elektromarkt.lt 135 620
lpt.lt 135 728
darbo.lt 136 298
lrs.lt 137 664
ets2mods.lt 137 988